Latest Coastal Weather Observations for Cape Byron

IDN60701

Issued at 5:31 am EST Monday 6 July 2015 (issued every 10 minutes, with the page automatically refreshed every 10 minutes)

About coastal observations | Map of coastal stations | Coastal observations for NSW | Marine services | Other Formats
Station Details ID: 058216 Name: CAPE BYRON AWS Lat: -28.64 Lon: 153.64 Height: 95.0 m
Data from the previous 72 hours. | See also: Recent months at Cape Byron
Date/Time
EST
Temp

°C
Wind Pressure Rain
since 9am
mm
Weather Cloud Vis
km
Sea
Height
m
Swell
Dir
 
Speed
knots
Gust
knots
hPa Trend Height
m
Period
s
Dir
06/05:30am 14.1 NNW 5 7 1018.2 - 0.0 - - - - - - -
06/05:00am 14.1 NNW 4 6 1018.2 - 0.0 - - - - - - -
06/04:30am 14.2 NNW 5 7 1018.2 - 0.0 - - - - - - -
06/04:00am 14.8 NNW 5 9 1018.4 - 0.0 - - - - - - -
06/03:30am 14.8 NNW 7 9 1018.7 - 0.0 - - - - - - -
06/03:00am 13.4 NW 5 6 1018.8 - 0.0 - - - - - - -
06/02:30am 13.4 NW 3 5 1019.2 - 0.0 - - - - - - -
06/02:00am 13.8 NW 4 7 1019.5 - 0.0 - - - - - - -
06/01:30am 14.0 NW 4 6 1019.8 - 0.0 - - - - - - -
06/01:00am 15.5 NNW 3 5 1020.0 - 0.0 - - - - - - -
06/12:30am 15.0 NNW 5 8 1020.1 - 0.0 - - - - - - -
06/12:00am 15.4 NW 4 6 1020.2 - 0.0 - - - - - - -
 
Date/Time
EST
Temp

°C
Wind Pressure Rain
since 9am
mm
Weather Cloud Vis
km
Sea
Height
m
Swell
Dir
 
Speed
knots
Gust
knots
hPa Trend Height
m
Period
s
Dir
05/11:30pm 14.8 NW 4 6 1020.4 - 0.0 - - - - - - -
05/11:00pm 15.0 NW 4 7 1020.6 - 0.0 - - - - - - -
05/10:30pm 13.9 WNW 5 9 1020.9 - 0.0 - - - - - - -
05/10:00pm 14.4 NW 4 7 1020.7 - 0.0 - - - - - - -
05/09:30pm 15.0 NW 4 6 1020.5 - 0.0 - - - - - - -
05/09:00pm 15.8 NW 4 7 1020.6 - 0.0 - - - - - - -
05/08:30pm 16.8 NNW 6 9 1020.4 - 0.0 - - - - - - -
05/08:00pm 16.2 NNW 5 8 1020.3 - 0.0 - - - - - - -
05/07:30pm 16.8 NW 5 6 1020.0 - 0.0 - - - - - - -
05/07:00pm 18.8 N 7 9 1020.1 - 0.0 - - - - - - -
05/06:30pm 18.8 NE 7 9 1020.0 - 0.0 - - - - - - -
05/06:00pm 18.2 NE 7 9 1019.9 - 0.0 - - - - - - -
05/05:30pm 18.0 ENE 6 8 1019.8 - 0.0 - - - - - - -
05/05:00pm 18.5 ENE 5 6 1019.9 - 0.0 - - - - - - -
05/04:30pm 19.0 ENE 5 6 1019.8 - 0.0 - - - - - - -
05/04:00pm 19.7 ENE 7 9 1019.7 - 0.0 - - - - - - -
05/03:30pm 20.2 ENE 6 8 1019.7 - 0.0 - - - - - - -
05/03:00pm 20.9 NE 6 8 1019.7 - 0.0 - - - - - - -
05/02:30pm 21.0 ENE 6 7 1019.8 - 0.0 - - - - - - -
05/02:00pm 21.0 NE 7 10 1020.0 - 0.0 - - - - - - -
05/01:30pm 21.8 ENE 7 8 1020.0 - 0.0 - - - - - - -
05/01:00pm 21.0 NE 7 10 1020.2 - 0.0 - - - - - - -
05/12:30pm 21.2 NE 6 9 1020.7 - 0.0 - - - - - - -
05/12:00pm 20.7 NE 6 8 1021.3 - 0.0 - - - - - - -
05/11:30am 20.9 N 5 7 1021.7 - 0.0 - - - - - - -
05/11:00am 20.5 N 2 6 1022.1 - 0.0 - - - - - - -
05/10:30am 19.7 NNW 4 6 1022.4 - 0.0 - - - - - - -
05/10:00am 17.4 W 5 8 1022.6 - 0.0 - - - - - - -
05/09:30am 16.1 WSW 9 12 1022.6 - 0.0 - - - - - - -
05/09:00am 15.7 WSW 10 13 1022.5 - 0.0 - - - - - - -
05/08:30am 14.8 W 11 15 1022.3 - 0.0 - - - - - - -
05/08:00am 15.2 W 10 13 1022.2 - 0.0 - - - - - - -
05/07:30am 15.1 W 9 11 1022.0 - 0.0 - - - - - - -
05/07:00am 14.7 WNW 9 10 1021.8 - 0.0 - - - - - - -
05/06:30am 14.9 W 8 10 1021.7 - 0.0 - - - - - - -
05/06:00am 15.4 W 10 12 1021.3 - 0.0 - - - - - - -
05/05:30am 15.5 W 9 11 1021.1 - 0.0 - - - - - - -
05/05:00am 14.9 W 11 13 1020.8 - 0.0 - - - - - - -
05/04:30am 15.3 W 11 15 1020.8 - 0.0 - - - - - - -
05/04:00am 15.2 WNW 12 14 1020.9 - 0.0 - - - - - - -
05/03:30am 14.7 WNW 10 12 1021.0 - 0.0 - - - - - - -
05/03:00am 14.2 WNW 9 10 1021.3 - 0.0 - - - - - - -
05/02:30am 14.3 NW 5 8 1021.4 - 0.0 - - - - - - -
05/02:00am 14.9 NW 4 6 1021.6 - 0.0 - - - - - - -
05/01:30am 15.1 NW 4 7 1021.8 - 0.0 - - - - - - -
05/01:00am 15.1 NW 5 8 1022.0 - 0.0 - - - - - - -
05/12:30am 15.0 NW 4 7 1022.0 - 0.0 - - - - - - -
05/12:00am 14.6 WNW 6 9 1022.0 - 0.0 - - - - - - -
 
Date/Time
EST
Temp

°C
Wind Pressure Rain
since 9am
mm
Weather Cloud Vis
km
Sea
Height
m
Swell
Dir
 
Speed
knots
Gust
knots
hPa Trend Height
m
Period
s
Dir
04/11:30pm 14.3 WNW 4 6 1022.0 - 0.0 - - - - - - -
04/11:00pm 14.0 WNW 7 11 1022.2 - 0.0 - - - - - - -
04/10:30pm 13.9 WNW 8 11 1022.0 - 0.0 - - - - - - -
04/10:00pm 14.0 WNW 8 10 1022.0 - 0.0 - - - - - - -
04/09:30pm 14.4 NW 7 9 1022.0 - 0.0 - - - - - - -
04/09:00pm 15.3 NW 6 8 1022.0 - 0.0 - - - - - - -
04/08:30pm 15.4 NNW 5 6 1022.0 - 0.0 - - - - - - -
04/08:00pm 16.4 ENE 5 7 1021.8 - 0.0 - - - - - - -
04/07:30pm 16.1 ENE 5 7 1021.8 - 0.0 - - - - - - -
04/07:00pm 16.3 ENE 5 7 1021.6 - 0.0 - - - - - - -
04/06:30pm 15.9 E 6 9 1021.3 - 0.0 - - - - - - -
04/06:00pm 16.1 E 8 11 1021.1 - 0.0 - - - - - - -
04/05:30pm 16.4 ESE 8 11 1020.9 - 0.0 - - - - - - -
04/05:00pm 16.7 ESE 8 9 1020.9 - 0.0 - - - - - - -
04/04:30pm 17.2 SE 8 9 1020.9 - 0.0 - - - - - - -
04/04:00pm 17.4 ESE 7 8 1021.0 - 0.0 - - - - - - -
04/03:30pm 17.7 SE 6 8 1021.0 - 0.0 - - - - - - -
04/03:00pm 17.9 S 7 8 1020.9 - 0.0 - - - - - - -
04/02:30pm 17.7 S 7 9 1021.0 - 0.0 - - - - - - -
04/02:00pm 17.5 SSW 8 10 1021.1 - 0.0 - - - - - - -
04/01:30pm 17.7 SSW 8 11 1021.4 - 0.0 - - - - - - -
04/01:00pm 17.2 SSW 10 15 1021.6 - 0.0 - - - - - - -
04/12:30pm 16.6 WSW 8 13 1022.1 - 0.0 - - - - - - -
04/12:00pm 15.8 WSW 9 12 1022.8 - 0.0 - - - - - - -
04/11:30am 15.3 SW 11 14 1023.2 - 0.0 - - - - - - -
04/11:00am 15.9 SW 13 16 1023.5 - 0.0 - - - - - - -
04/10:30am 15.2 SW 12 17 1023.8 - 0.0 - - - - - - -
04/10:00am 14.4 WSW 13 18 1024.0 - 0.0 - - - - - - -
04/09:30am 13.7 WSW 13 20 1024.0 - 0.0 - - - - - - -
04/09:00am 12.7 WSW 11 16 1024.0 - 4.4 - - - - - - -
04/08:30am 12.3 WSW 15 20 1023.7 - 4.4 - - - - - - -
04/08:00am 12.2 SW 15 18 1023.4 - 4.4 - - - - - - -
04/07:30am 12.0 SW 15 18 1023.2 - 4.4 - - - - - - -
04/07:00am 12.0 SW 17 21 1023.1 - 4.4 - - - - - - -
04/06:30am 11.9 WSW 17 21 1022.8 - 4.4 - - - - - - -
04/06:00am 11.6 WSW 16 20 1022.7 - 4.4 - - - - - - -
04/05:30am 11.4 WSW 17 22 1022.5 - 4.4 - - - - - - -
04/05:00am 11.1 WSW 15 21 1022.5 - 4.4 - - - - - - -
04/04:30am 11.2 SW 17 23 1022.7 - 4.4 - - - - - - -
04/04:00am 11.0 WSW 18 24 1022.6 - 4.4 - - - - - - -
04/03:30am 10.9 WSW 15 21 1022.7 - 4.4 - - - - - - -
04/03:00am 11.3 WSW 15 21 1022.6 - 4.4 - - - - - - -
04/02:30am 11.4 WSW 15 18 1022.7 - 4.4 - - - - - - -
04/02:00am 11.2 WSW 15 19 1022.7 - 4.4 - - - - - - -
04/01:30am 10.8 WSW 15 19 1022.6 - 4.4 - - - - - - -
04/01:00am 11.4 WSW 13 15 1022.9 - 4.4 - - - - - - -
04/12:30am 11.3 SW 11 14 1023.3 - 3.8 - - - - - - -
04/12:00am 11.7 WSW 14 16 1023.1 - 3.2 Recent precip. - - - - - -
 
Date/Time
EST
Temp

°C
Wind Pressure Rain
since 9am
mm
Weather Cloud Vis
km
Sea
Height
m
Swell
Dir
 
Speed
knots
Gust
knots
hPa Trend Height
m
Period
s
Dir
03/11:30pm 11.9 SW 15 20 1023.4 - 3.2 - - - - - - -
03/11:00pm 12.5 SW 15 18 1023.7 - 3.0 - - - - - - -
03/10:30pm 12.5 WSW 14 17 1023.6 - 3.0 - - - - - - -
03/10:00pm 12.0 SW 16 19 1023.6 - 3.0 - - - - - - -
03/09:30pm 11.9 SW 15 18 1023.5 - 3.0 - - - - - - -
03/09:00pm 11.7 SW 17 21 1023.5 - 3.0 Recent precip. - - - - - -
03/08:30pm 12.2 SW 13 17 1023.7 - 2.8 - - - - - - -
03/08:00pm 12.8 SW 15 20 1023.5 - 0.4 - - - - - - -
03/07:30pm 13.2 SW 15 18 1023.2 - 0.4 - - - - - - -
03/07:00pm 13.3 SW 11 14 1023.1 - 0.4 - - - - - - -
03/06:30pm 14.1 SW 16 21 1022.7 - 0.0 - - - - - - -
03/06:05pm 15.5 SW 16 29 1022.5 - 0.0 - - - - - - -
03/06:00pm 14.7 SW 14 17 1022.4 - 0.0 - - - - - - -
03/05:30pm 15.1 SW 17 23 1022.1 - 0.0 - - - - - - -
03/05:00pm 15.3 SW 17 22 1022.1 - 0.0 - - - - - - -
03/04:30pm 15.7 SW 17 22 1021.8 - 0.0 - - - - - - -
03/04:00pm 16.4 SSW 23 33 1021.5 - 0.0 - - - - - - -
03/03:55pm 16.2 SSW 22 33 1021.4 - 0.0 - - - - - - -
03/03:30pm 16.5 SW 18 25 1021.4 - 0.0 - - - - - - -
03/03:02pm 16.1 SW 18 28 1021.3 - 0.0 - - - - - - -
03/03:00pm 16.0 SW 19 28 1021.3 - 0.0 - - - - - - -
03/02:30pm 16.0 SW 19 26 1021.3 - 0.0 - - - - - - -
03/02:00pm 16.2 SW 18 24 1021.3 - 0.0 - - - - - - -
03/01:30pm 15.9 SW 19 28 1021.2 - 0.0 - - - - - - -
03/01:21pm 16.3 SW 18 28 1021.2 - 0.0 - - - - - - -
03/01:00pm 15.9 SW 18 24 1021.3 - 0.0 - - - - - - -
03/12:30pm 15.2 SW 19 25 1021.6 - 0.0 - - - - - - -
03/12:00pm 14.7 SW 18 24 1022.0 - 0.0 - - - - - - -
03/11:30am 14.7 SW 17 25 1022.2 - 0.0 - - - - - - -
03/11:03am 14.2 SW 17 27 1022.6 - 0.0 - - - - - - -
03/11:00am 14.2 SW 17 24 1022.6 - 0.0 - - - - - - -
03/10:30am 13.6 SW 18 24 1022.8 - 0.0 - - - - - - -
03/10:00am 12.8 SW 17 24 1023.0 - 0.0 - - - - - - -
03/09:30am 11.9 WSW 17 22 1023.2 - 0.0 - - - - - - -
03/09:00am 11.2 WSW 17 24 1023.0 - 0.0 - - - - - - -
03/08:30am 10.3 WSW 17 22 1022.7 - 0.0 - - - - - - -
03/08:00am 9.9 WSW 17 23 1022.5 - 0.0 - - - - - - -
03/07:30am 9.9 WSW 19 23 1022.3 - 0.0 - - - - - - -
03/07:00am 9.7 WSW 19 24 1022.1 - 0.0 - - - - - - -
03/06:30am 9.7 WSW 20 25 1021.6 - 0.0 - - - - - - -
03/06:00am 9.8 WSW 19 24 1021.3 - 0.0 - - - - - - -

Other Formats:

Comma delimited format used in spreadsheet applications
http://www.bom.gov.au/fwo/IDN60701/IDN60701.94599.axf

JavaScript Object Notation format (JSON) in row-major order
http://www.bom.gov.au/fwo/IDN60701/IDN60701.94599.json